sensor_id;sensor_type;location;lat;lon;timestamp;pressure;altitude;pressure_sealevel;temperature;humidity
20015;BME280;61787;42.022;23.078;2023-11-21T00:00:27;96665.38;;;7.19;94.51
20015;BME280;61787;42.022;23.078;2023-11-21T00:01:28;96660.50;;;7.04;95.65
20015;BME280;61787;42.022;23.078;2023-11-21T00:02:30;96669.13;;;6.75;97.52
20015;BME280;61787;42.022;23.078;2023-11-21T00:03:32;96668.72;;;6.42;99.98
20015;BME280;61787;42.022;23.078;2023-11-21T00:04:34;96672.09;;;6.17;100.00
20015;BME280;61787;42.022;23.078;2023-11-21T00:05:35;96667.00;;;5.98;100.00
20015;BME280;61787;42.022;23.078;2023-11-21T00:06:37;96670.31;;;5.82;100.00
20015;BME280;61787;42.022;23.078;2023-11-21T00:07:38;96670.72;;;5.67;100.00
20015;BME280;61787;42.022;23.078;2023-11-21T00:08:40;96667.53;;;5.56;100.00
20015;BME280;61787;42.022;23.078;2023-11-21T00:09:42;96661.53;;;5.50;100.00
20015;BME280;61787;42.022;23.078;2023-11-21T00:10:44;96665.41;;;5.44;100.00
20015;BME280;61787;42.022;23.078;2023-11-21T00:11:45;96663.50;;;5.36;100.00
20015;BME280;61787;42.022;23.078;2023-11-21T00:12:47;96664.09;;;5.33;100.00
20015;BME280;61787;42.022;23.078;2023-11-21T00:13:49;96654.66;;;5.27;100.00
20015;BME280;61787;42.022;23.078;2023-11-21T00:14:51;96657.34;;;5.27;100.00
20015;BME280;61787;42.022;23.078;2023-11-21T00:15:56;96659.75;;;5.37;100.00
20015;BME280;61787;42.022;23.078;2023-11-21T00:16:59;96662.31;;;5.51;100.00
20015;BME280;61787;42.022;23.078;2023-11-21T00:18:00;96660.81;;;5.58;100.00
20015;BME280;61787;42.022;23.078;2023-11-21T00:19:02;96666.34;;;5.71;100.00
20015;BME280;61787;42.022;23.078;2023-11-21T00:20:05;96674.56;;;5.83;100.00
20015;BME280;61787;42.022;23.078;2023-11-21T00:21:08;96672.16;;;5.95;100.00
20015;BME280;61787;42.022;23.078;2023-11-21T00:22:10;96667.97;;;6.03;100.00
20015;BME280;61787;42.022;23.078;2023-11-21T00:23:12;96672.84;;;6.09;100.00
20015;BME280;61787;42.022;23.078;2023-11-21T00:24:14;96673.78;;;6.13;100.00
20015;BME280;61787;42.022;23.078;2023-11-21T00:25:15;96668.50;;;6.22;100.00
20015;BME280;61787;42.022;23.078;2023-11-21T00:26:19;96672.91;;;6.26;100.00
20015;BME280;61787;42.022;23.078;2023-11-21T00:27:20;96676.66;;;6.25;100.00
20015;BME280;61787;42.022;23.078;2023-11-21T00:28:22;96672.00;;;6.31;100.00
20015;BME280;61787;42.022;23.078;2023-11-21T00:29:24;96669.50;;;6.34;100.00
20015;BME280;61787;42.022;23.078;2023-11-21T00:30:25;96671.66;;;6.32;100.00
20015;BME280;61787;42.022;23.078;2023-11-21T00:31:27;96676.53;;;6.30;100.00
20015;BME280;61787;42.022;23.078;2023-11-21T00:32:29;96671.22;;;6.30;100.00
20015;BME280;61787;42.022;23.078;2023-11-21T00:33:30;96678.72;;;6.28;100.00
20015;BME280;61787;42.022;23.078;2023-11-21T00:34:33;96669.63;;;6.29;100.00
20015;BME280;61787;42.022;23.078;2023-11-21T00:35:34;96677.47;;;6.34;100.00
20015;BME280;61787;42.022;23.078;2023-11-21T00:36:36;96681.84;;;6.30;100.00
20015;BME280;61787;42.022;23.078;2023-11-21T00:37:38;96676.81;;;6.20;100.00
20015;BME280;61787;42.022;23.078;2023-11-21T00:38:40;96671.56;;;6.07;100.00
20015;BME280;61787;42.022;23.078;2023-11-21T00:39:42;96675.03;;;5.85;100.00
20015;BME280;61787;42.022;23.078;2023-11-21T00:40:44;96667.97;;;5.80;100.00
20015;BME280;61787;42.022;23.078;2023-11-21T00:41:45;96673.13;;;5.77;100.00
20015;BME280;61787;42.022;23.078;2023-11-21T00:42:47;96671.53;;;5.76;100.00
20015;BME280;61787;42.022;23.078;2023-11-21T00:43:49;96669.81;;;5.71;100.00
20015;BME280;61787;42.022;23.078;2023-11-21T00:44:50;96670.84;;;5.62;100.00
20015;BME280;61787;42.022;23.078;2023-11-21T00:45:52;96673.22;;;5.63;100.00
20015;BME280;61787;42.022;23.078;2023-11-21T00:46:54;96674.69;;;5.78;100.00
20015;BME280;61787;42.022;23.078;2023-11-21T00:47:56;96679.66;;;5.93;100.00
20015;BME280;61787;42.022;23.078;2023-11-21T00:48:59;96684.41;;;6.05;100.00
20015;BME280;61787;42.022;23.078;2023-11-21T00:50:01;96678.97;;;6.10;100.00
20015;BME280;61787;42.022;23.078;2023-11-21T00:51:03;96680.22;;;6.12;100.00
20015;BME280;61787;42.022;23.078;2023-11-21T00:52:05;96683.81;;;6.16;100.00
20015;BME280;61787;42.022;23.078;2023-11-21T00:53:07;96683.69;;;6.21;100.00
20015;BME280;61787;42.022;23.078;2023-11-21T00:54:08;96680.88;;;6.26;100.00
20015;BME280;61787;42.022;23.078;2023-11-21T00:55:10;96686.56;;;6.33;100.00
20015;BME280;61787;42.022;23.078;2023-11-21T00:56:13;96686.56;;;6.33;100.00
20015;BME280;61787;42.022;23.078;2023-11-21T00:57:15;96689.72;;;6.35;100.00
20015;BME280;61787;42.022;23.078;2023-11-21T00:58:16;96691.44;;;6.40;100.00
20015;BME280;61787;42.022;23.078;2023-11-21T00:59:18;96684.69;;;6.42;99.74
20015;BME280;61787;42.022;23.078;2023-11-21T01:00:20;96690.38;;;6.50;99.47
20015;BME280;61787;42.022;23.078;2023-11-21T01:01:21;96692.91;;;6.55;98.69
20015;BME280;61787;42.022;23.078;2023-11-21T01:02:24;96688.78;;;6.49;98.16
20015;BME280;61787;42.022;23.078;2023-11-21T01:03:27;96690.25;;;6.15;99.00
20015;BME280;61787;42.022;23.078;2023-11-21T01:04:28;96692.34;;;5.96;100.00
20015;BME280;61787;42.022;23.078;2023-11-21T01:05:30;96687.88;;;5.83;100.00
20015;BME280;61787;42.022;23.078;2023-11-21T01:06:32;96684.97;;;5.71;100.00
20015;BME280;61787;42.022;23.078;2023-11-21T01:07:34;96683.78;;;5.54;100.00
20015;BME280;61787;42.022;23.078;2023-11-21T01:08:36;96679.31;;;5.19;100.00
20015;BME280;61787;42.022;23.078;2023-11-21T01:09:38;96680.91;;;4.70;100.00
20015;BME280;61787;42.022;23.078;2023-11-21T01:10:39;96682.53;;;4.44;100.00
20015;BME280;61787;42.022;23.078;2023-11-21T01:11:41;96680.06;;;4.34;100.00
20015;BME280;61787;42.022;23.078;2023-11-21T01:12:44;96677.63;;;4.24;100.00
20015;BME280;61787;42.022;23.078;2023-11-21T01:13:45;96674.38;;;4.13;100.00
20015;BME280;61787;42.022;23.078;2023-11-21T01:14:47;96679.41;;;4.15;100.00
20015;BME280;61787;42.022;23.078;2023-11-21T01:15:49;96675.16;;;4.14;100.00
20015;BME280;61787;42.022;23.078;2023-11-21T01:16:50;96680.66;;;4.17;100.00
20015;BME280;61787;42.022;23.078;2023-11-21T01:17:52;96668.69;;;4.20;100.00
20015;BME280;61787;42.022;23.078;2023-11-21T01:18:54;96675.94;;;4.28;100.00
20015;BME280;61787;42.022;23.078;2023-11-21T01:19:56;96663.06;;;4.35;100.00
20015;BME280;61787;42.022;23.078;2023-11-21T01:20:59;96666.00;;;4.47;100.00
20015;BME280;61787;42.022;23.078;2023-11-21T01:22:01;96667.66;;;4.57;100.00
20015;BME280;61787;42.022;23.078;2023-11-21T01:23:03;96671.78;;;4.63;100.00
20015;BME280;61787;42.022;23.078;2023-11-21T01:24:06;96671.56;;;4.73;100.00
20015;BME280;61787;42.022;23.078;2023-11-21T01:25:08;96673.09;;;4.88;100.00
20015;BME280;61787;42.022;23.078;2023-11-21T01:26:11;96670.72;;;5.00;100.00
20015;BME280;61787;42.022;23.078;2023-11-21T01:27:12;96678.94;;;5.12;100.00
20015;BME280;61787;42.022;23.078;2023-11-21T01:28:14;96671.03;;;5.21;100.00
20015;BME280;61787;42.022;23.078;2023-11-21T01:29:16;96674.38;;;5.26;100.00
20015;BME280;61787;42.022;23.078;2023-11-21T01:30:18;96668.63;;;5.33;100.00
20015;BME280;61787;42.022;23.078;2023-11-21T01:31:19;96669.19;;;5.43;100.00
20015;BME280;61787;42.022;23.078;2023-11-21T01:32:22;96666.41;;;5.48;100.00
20015;BME280;61787;42.022;23.078;2023-11-21T01:33:23;96673.63;;;5.56;100.00
20015;BME280;61787;42.022;23.078;2023-11-21T01:34:27;96674.00;;;5.64;100.00
20015;BME280;61787;42.022;23.078;2023-11-21T01:35:29;96673.75;;;5.74;100.00
20015;BME280;61787;42.022;23.078;2023-11-21T01:36:31;96676.59;;;5.86;100.00
20015;BME280;61787;42.022;23.078;2023-11-21T01:37:37;96674.19;;;5.98;100.00
20015;BME280;61787;42.022;23.078;2023-11-21T01:38:40;96672.63;;;5.97;100.00
20015;BME280;61787;42.022;23.078;2023-11-21T01:39:41;96665.25;;;5.94;100.00
20015;BME280;61787;42.022;23.078;2023-11-21T01:40:43;96667.94;;;5.94;100.00
20015;BME280;61787;42.022;23.078;2023-11-21T01:41:45;96665.13;;;5.99;100.00
20015;BME280;61787;42.022;23.078;2023-11-21T01:42:46;96666.09;;;6.03;100.00
20015;BME280;61787;42.022;23.078;2023-11-21T01:43:49;96668.25;;;6.01;100.00
20015;BME280;61787;42.022;23.078;2023-11-21T01:44:52;96665.28;;;6.03;100.00
20015;BME280;61787;42.022;23.078;2023-11-21T01:45:56;96659.53;;;6.09;100.00
20015;BME280;61787;42.022;23.078;2023-11-21T01:46:58;96662.06;;;6.14;100.00
20015;BME280;61787;42.022;23.078;2023-11-21T01:48:01;96664.59;;;6.19;100.00
20015;BME280;61787;42.022;23.078;2023-11-21T01:49:04;96656.59;;;6.19;100.00
20015;BME280;61787;42.022;23.078;2023-11-21T01:50:07;96663.78;;;6.19;100.00
20015;BME280;61787;42.022;23.078;2023-11-21T01:51:09;96662.22;;;6.18;100.00
20015;BME280;61787;42.022;23.078;2023-11-21T01:52:11;96666.59;;;6.14;100.00
20015;BME280;61787;42.022;23.078;2023-11-21T01:53:13;96664.50;;;6.02;100.00
20015;BME280;61787;42.022;23.078;2023-11-21T01:54:18;96663.81;;;5.88;100.00
20015;BME280;61787;42.022;23.078;2023-11-21T01:55:20;96662.75;;;5.89;100.00
20015;BME280;61787;42.022;23.078;2023-11-21T01:56:29;96660.97;;;5.84;100.00
20015;BME280;61787;42.022;23.078;2023-11-21T01:57:32;96655.94;;;5.83;100.00
20015;BME280;61787;42.022;23.078;2023-11-21T01:58:34;96661.16;;;5.88;100.00
20015;BME280;61787;42.022;23.078;2023-11-21T01:59:37;96657.88;;;5.91;100.00
20015;BME280;61787;42.022;23.078;2023-11-21T02:00:38;96649.31;;;5.94;100.00
20015;BME280;61787;42.022;23.078;2023-11-21T02:01:40;96647.44;;;5.94;100.00
20015;BME280;61787;42.022;23.078;2023-11-21T02:02:46;96647.84;;;5.88;100.00
20015;BME280;61787;42.022;23.078;2023-11-21T02:03:48;96646.66;;;5.72;100.00
20015;BME280;61787;42.022;23.078;2023-11-21T02:04:50;96646.78;;;5.67;100.00
20015;BME280;61787;42.022;23.078;2023-11-21T02:05:53;96644.00;;;5.72;100.00
20015;BME280;61787;42.022;23.078;2023-11-21T02:06:54;96645.56;;;5.73;100.00
20015;BME280;61787;42.022;23.078;2023-11-21T02:07:57;96643.38;;;5.75;100.00
20015;BME280;61787;42.022;23.078;2023-11-21T02:08:59;96644.00;;;5.72;100.00
20015;BME280;61787;42.022;23.078;2023-11-21T02:10:01;96642.34;;;5.53;100.00
20015;BME280;61787;42.022;23.078;2023-11-21T02:11:03;96645.63;;;5.28;100.00
20015;BME280;61787;42.022;23.078;2023-11-21T02:12:05;96648.59;;;5.13;100.00
20015;BME280;61787;42.022;23.078;2023-11-21T02:13:06;96646.69;;;5.05;100.00
20015;BME280;61787;42.022;23.078;2023-11-21T02:14:08;96645.72;;;5.01;100.00
20015;BME280;61787;42.022;23.078;2023-11-21T02:15:13;96636.34;;;5.03;100.00
20015;BME280;61787;42.022;23.078;2023-11-21T02:16:21;96638.97;;;5.17;100.00
20015;BME280;61787;42.022;23.078;2023-11-21T02:17:23;96642.47;;;5.26;100.00
20015;BME280;61787;42.022;23.078;2023-11-21T02:18:25;96635.31;;;5.35;100.00
20015;BME280;61787;42.022;23.078;2023-11-21T02:19:27;96643.19;;;5.40;100.00
20015;BME280;61787;42.022;23.078;2023-11-21T02:20:32;96640.38;;;5.45;100.00
20015;BME280;61787;42.022;23.078;2023-11-21T02:21:36;96631.69;;;5.53;100.00
20015;BME280;61787;42.022;23.078;2023-11-21T02:22:48;96637.78;;;5.54;100.00
20015;BME280;61787;42.022;23.078;2023-11-21T02:23:50;96638.69;;;5.49;100.00
20015;BME280;61787;42.022;23.078;2023-11-21T02:24:52;96631.81;;;5.48;100.00
20015;BME280;61787;42.022;23.078;2023-11-21T02:25:54;96635.69;;;5.42;100.00
20015;BME280;61787;42.022;23.078;2023-11-21T02:26:56;96632.41;;;5.45;100.00
20015;BME280;61787;42.022;23.078;2023-11-21T02:28:00;96631.81;;;5.48;100.00
20015;BME280;61787;42.022;23.078;2023-11-21T02:29:02;96630.41;;;5.51;100.00
20015;BME280;61787;42.022;23.078;2023-11-21T02:30:06;96631.56;;;5.58;100.00
20015;BME280;61787;42.022;23.078;2023-11-21T02:31:09;96625.34;;;5.63;100.00
20015;BME280;61787;42.022;23.078;2023-11-21T02:32:11;96633.97;;;5.69;100.00
20015;BME280;61787;42.022;23.078;2023-11-21T02:33:12;96630.56;;;5.77;100.00
20015;BME280;61787;42.022;23.078;2023-11-21T02:34:15;96633.75;;;5.87;100.00
20015;BME280;61787;42.022;23.078;2023-11-21T02:35:17;96632.84;;;5.92;100.00
20015;BME280;61787;42.022;23.078;2023-11-21T02:36:19;96631.63;;;5.98;100.00
20015;BME280;61787;42.022;23.078;2023-11-21T02:37:23;96622.88;;;6.06;100.00
20015;BME280;61787;42.022;23.078;2023-11-21T02:38:24;96629.16;;;6.10;100.00
20015;BME280;61787;42.022;23.078;2023-11-21T02:39:26;96629.78;;;6.16;100.00
20015;BME280;61787;42.022;23.078;2023-11-21T02:40:29;96630.13;;;6.14;100.00
20015;BME280;61787;42.022;23.078;2023-11-21T02:41:31;96628.53;;;6.13;100.00
20015;BME280;61787;42.022;23.078;2023-11-21T02:42:32;96633.44;;;6.20;100.00
20015;BME280;61787;42.022;23.078;2023-11-21T02:43:34;96630.00;;;6.28;100.00
20015;BME280;61787;42.022;23.078;2023-11-21T02:44:36;96631.72;;;6.32;100.00
20015;BME280;61787;42.022;23.078;2023-11-21T02:45:37;96631.59;;;6.37;99.74
20015;BME280;61787;42.022;23.078;2023-11-21T02:46:39;96632.06;;;6.39;98.94
20015;BME280;61787;42.022;23.078;2023-11-21T02:47:44;96628.31;;;6.40;98.75
20015;BME280;61787;42.022;23.078;2023-11-21T02:48:46;96629.56;;;6.34;99.01
20015;BME280;61787;42.022;23.078;2023-11-21T02:49:48;96628.59;;;6.30;99.12
20015;BME280;61787;42.022;23.078;2023-11-21T02:50:49;96630.78;;;6.28;100.00
20015;BME280;61787;42.022;23.078;2023-11-21T02:51:52;96624.06;;;6.31;100.00
20015;BME280;61787;42.022;23.078;2023-11-21T02:52:53;96622.66;;;6.33;100.00
20015;BME280;61787;42.022;23.078;2023-11-21T02:53:56;96626.41;;;6.32;100.00
20015;BME280;61787;42.022;23.078;2023-11-21T02:55:03;96624.38;;;6.29;100.00
20015;BME280;61787;42.022;23.078;2023-11-21T02:56:05;96635.31;;;6.28;100.00
20015;BME280;61787;42.022;23.078;2023-11-21T02:57:06;96631.22;;;6.22;100.00
20015;BME280;61787;42.022;23.078;2023-11-21T02:58:09;96631.13;;;5.96;100.00
20015;BME280;61787;42.022;23.078;2023-11-21T02:59:10;96640.53;;;5.71;100.00
20015;BME280;61787;42.022;23.078;2023-11-21T03:00:12;96636.41;;;5.56;100.00
20015;BME280;61787;42.022;23.078;2023-11-21T03:01:17;96634.00;;;5.46;100.00
20015;BME280;61787;42.022;23.078;2023-11-21T03:02:18;96635.44;;;5.30;100.00
20015;BME280;61787;42.022;23.078;2023-11-21T03:03:20;96635.97;;;5.19;100.00
20015;BME280;61787;42.022;23.078;2023-11-21T03:04:22;96637.25;;;4.99;100.00
20015;BME280;61787;42.022;23.078;2023-11-21T03:05:24;96638.22;;;4.81;100.00
20015;BME280;61787;42.022;23.078;2023-11-21T03:06:25;96632.44;;;4.65;100.00
20015;BME280;61787;42.022;23.078;2023-11-21T03:07:27;96637.00;;;4.51;100.00
20015;BME280;61787;42.022;23.078;2023-11-21T03:08:29;96635.44;;;4.36;100.00
20015;BME280;61787;42.022;23.078;2023-11-21T03:09:30;96628.56;;;4.21;100.00
20015;BME280;61787;42.022;23.078;2023-11-21T03:10:32;96629.44;;;4.17;100.00
20015;BME280;61787;42.022;23.078;2023-11-21T03:11:34;96628.09;;;4.19;100.00
20015;BME280;61787;42.022;23.078;2023-11-21T03:12:37;96632.88;;;4.31;100.00
20015;BME280;61787;42.022;23.078;2023-11-21T03:13:42;96625.03;;;4.40;100.00
20015;BME280;61787;42.022;23.078;2023-11-21T03:14:44;96624.81;;;4.36;100.00
20015;BME280;61787;42.022;23.078;2023-11-21T03:15:45;96624.44;;;4.29;100.00
20015;BME280;61787;42.022;23.078;2023-11-21T03:16:48;96620.03;;;4.24;100.00
20015;BME280;61787;42.022;23.078;2023-11-21T03:17:50;96618.38;;;4.15;100.00
20015;BME280;61787;42.022;23.078;2023-11-21T03:18:52;96611.59;;;4.09;100.00
20015;BME280;61787;42.022;23.078;2023-11-21T03:19:54;96606.56;;;4.07;100.00
20015;BME280;61787;42.022;23.078;2023-11-21T03:20:57;96606.84;;;4.06;100.00
20015;BME280;61787;42.022;23.078;2023-11-21T03:21:58;96602.03;;;4.08;100.00
20015;BME280;61787;42.022;23.078;2023-11-21T03:23:00;96606.00;;;4.10;100.00
20015;BME280;61787;42.022;23.078;2023-11-21T03:24:02;96606.53;;;4.21;100.00
20015;BME280;61787;42.022;23.078;2023-11-21T03:25:06;96605.47;;;4.36;100.00
20015;BME280;61787;42.022;23.078;2023-11-21T03:26:12;96615.16;;;4.54;100.00
20015;BME280;61787;42.022;23.078;2023-11-21T03:27:14;96614.03;;;4.68;100.00
20015;BME280;61787;42.022;23.078;2023-11-21T03:28:16;96610.34;;;4.78;100.00
20015;BME280;61787;42.022;23.078;2023-11-21T03:29:17;96617.91;;;4.85;100.00
20015;BME280;61787;42.022;23.078;2023-11-21T03:30:19;96618.88;;;4.89;100.00
20015;BME280;61787;42.022;23.078;2023-11-21T03:31:21;96630.19;;;4.94;100.00
20015;BME280;61787;42.022;23.078;2023-11-21T03:32:23;96628.81;;;4.97;100.00
20015;BME280;61787;42.022;23.078;2023-11-21T03:33:25;96628.69;;;5.02;100.00
20015;BME280;61787;42.022;23.078;2023-11-21T03:34:27;96633.69;;;5.03;100.00
20015;BME280;61787;42.022;23.078;2023-11-21T03:35:29;96634.72;;;4.94;100.00
20015;BME280;61787;42.022;23.078;2023-11-21T03:36:31;96633.13;;;4.93;100.00
20015;BME280;61787;42.022;23.078;2023-11-21T03:37:32;96629.41;;;4.94;100.00
20015;BME280;61787;42.022;23.078;2023-11-21T03:38:34;96635.69;;;4.98;100.00
20015;BME280;61787;42.022;23.078;2023-11-21T03:39:36;96621.81;;;5.01;100.00
20015;BME280;61787;42.022;23.078;2023-11-21T03:40:38;96633.69;;;5.03;100.00
20015;BME280;61787;42.022;23.078;2023-11-21T03:41:41;96628.56;;;5.07;100.00
20015;BME280;61787;42.022;23.078;2023-11-21T03:42:42;96629.03;;;5.09;100.00
20015;BME280;61787;42.022;23.078;2023-11-21T03:43:44;96634.59;;;4.99;100.00
20015;BME280;61787;42.022;23.078;2023-11-21T03:44:45;96629.03;;;4.87;100.00
20015;BME280;61787;42.022;23.078;2023-11-21T03:45:47;96638.91;;;4.72;100.00
20015;BME280;61787;42.022;23.078;2023-11-21T03:46:50;96632.84;;;4.58;100.00
20015;BME280;61787;42.022;23.078;2023-11-21T03:47:51;96624.69;;;4.41;100.00
20015;BME280;61787;42.022;23.078;2023-11-21T03:48:53;96622.06;;;4.27;100.00
20015;BME280;61787;42.022;23.078;2023-11-21T03:49:57;96615.81;;;4.10;100.00
20015;BME280;61787;42.022;23.078;2023-11-21T03:50:58;96617.75;;;3.91;100.00
20015;BME280;61787;42.022;23.078;2023-11-21T03:52:00;96620.31;;;3.68;100.00
20015;BME280;61787;42.022;23.078;2023-11-21T03:53:02;96621.47;;;3.62;100.00
20015;BME280;61787;42.022;23.078;2023-11-21T03:54:04;96619.72;;;3.58;100.00
20015;BME280;61787;42.022;23.078;2023-11-21T03:55:06;96620.69;;;3.62;100.00
20015;BME280;61787;42.022;23.078;2023-11-21T03:56:07;96615.81;;;3.69;100.00
20015;BME280;61787;42.022;23.078;2023-11-21T03:57:10;96627.66;;;3.71;100.00
20015;BME280;61787;42.022;23.078;2023-11-21T03:58:11;96631.91;;;3.72;100.00
20015;BME280;61787;42.022;23.078;2023-11-21T03:59:13;96632.47;;;3.69;100.00
20015;BME280;61787;42.022;23.078;2023-11-21T04:00:15;96626.50;;;3.64;100.00
20015;BME280;61787;42.022;23.078;2023-11-21T04:01:24;96628.94;;;3.60;100.00
20015;BME280;61787;42.022;23.078;2023-11-21T04:02:26;96632.25;;;3.52;100.00
20015;BME280;61787;42.022;23.078;2023-11-21T04:03:29;96630.19;;;3.49;100.00
20015;BME280;61787;42.022;23.078;2023-11-21T04:04:31;96629.09;;;3.50;100.00
20015;BME280;61787;42.022;23.078;2023-11-21T04:05:33;96631.09;;;3.58;100.00
20015;BME280;61787;42.022;23.078;2023-11-21T04:06:34;96639.75;;;3.64;100.00
20015;BME280;61787;42.022;23.078;2023-11-21T04:07:37;96633.44;;;3.60;100.00
20015;BME280;61787;42.022;23.078;2023-11-21T04:08:39;96629.31;;;3.54;100.00
20015;BME280;61787;42.022;23.078;2023-11-21T04:09:41;96637.13;;;3.45;100.00
20015;BME280;61787;42.022;23.078;2023-11-21T04:10:43;96633.00;;;3.39;100.00
20015;BME280;61787;42.022;23.078;2023-11-21T04:11:45;96623.59;;;3.33;100.00
20015;BME280;61787;42.022;23.078;2023-11-21T04:12:47;96634.75;;;3.30;100.00
20015;BME280;61787;42.022;23.078;2023-11-21T04:13:49;96626.31;;;3.28;100.00
20015;BME280;61787;42.022;23.078;2023-11-21T04:14:51;96621.78;;;3.28;100.00
20015;BME280;61787;42.022;23.078;2023-11-21T04:15:56;96620.53;;;3.39;100.00
20015;BME280;61787;42.022;23.078;2023-11-21T04:16:58;96623.97;;;3.40;100.00
20015;BME280;61787;42.022;23.078;2023-11-21T04:17:59;96625.91;;;3.21;100.00
20015;BME280;61787;42.022;23.078;2023-11-21T04:19:01;96623.50;;;3.06;100.00
20015;BME280;61787;42.022;23.078;2023-11-21T04:20:04;96617.75;;;2.98;100.00
20015;BME280;61787;42.022;23.078;2023-11-21T04:21:10;96615.44;;;2.97;100.00
20015;BME280;61787;42.022;23.078;2023-11-21T04:22:12;96619.41;;;2.94;100.00
20015;BME280;61787;42.022;23.078;2023-11-21T04:23:14;96614.06;;;2.99;100.00
20015;BME280;61787;42.022;23.078;2023-11-21T04:24:16;96609.19;;;3.07;100.00
20015;BME280;61787;42.022;23.078;2023-11-21T04:25:18;96610.78;;;3.21;100.00
20015;BME280;61787;42.022;23.078;2023-11-21T04:26:20;96612.41;;;3.36;100.00
20015;BME280;61787;42.022;23.078;2023-11-21T04:27:21;96615.38;;;3.48;100.00
20015;BME280;61787;42.022;23.078;2023-11-21T04:28:23;96610.69;;;3.59;100.00
20015;BME280;61787;42.022;23.078;2023-11-21T04:29:28;96617.56;;;3.73;100.00
20015;BME280;61787;42.022;23.078;2023-11-21T04:30:30;96615.81;;;3.82;100.00
20015;BME280;61787;42.022;23.078;2023-11-21T04:31:32;96618.34;;;3.88;100.00
20015;BME280;61787;42.022;23.078;2023-11-21T04:32:33;96620.91;;;3.93;100.00
20015;BME280;61787;42.022;23.078;2023-11-21T04:33:35;96623.97;;;4.00;100.00
20015;BME280;61787;42.022;23.078;2023-11-21T04:34:37;96625.94;;;4.08;100.00
20015;BME280;61787;42.022;23.078;2023-11-21T04:35:39;96628.38;;;4.04;100.00
20015;BME280;61787;42.022;23.078;2023-11-21T04:36:41;96637.50;;;4.12;100.00
20015;BME280;61787;42.022;23.078;2023-11-21T04:37:42;96629.94;;;4.19;100.00
20015;BME280;61787;42.022;23.078;2023-11-21T04:38:44;96632.97;;;4.26;100.00
20015;BME280;61787;42.022;23.078;2023-11-21T04:39:45;96626.19;;;4.34;100.00
20015;BME280;61787;42.022;23.078;2023-11-21T04:40:47;96624.41;;;4.43;100.00
20015;BME280;61787;42.022;23.078;2023-11-21T04:41:50;96626.06;;;4.52;100.00
20015;BME280;61787;42.022;23.078;2023-11-21T04:42:51;96622.22;;;4.58;100.00
20015;BME280;61787;42.022;23.078;2023-11-21T04:43:53;96621.63;;;4.61;100.00
20015;BME280;61787;42.022;23.078;2023-11-21T04:44:55;96621.94;;;4.60;100.00
20015;BME280;61787;42.022;23.078;2023-11-21T04:45:56;96619.09;;;4.56;100.00
20015;BME280;61787;42.022;23.078;2023-11-21T04:46:58;96622.31;;;4.53;100.00
20015;BME280;61787;42.022;23.078;2023-11-21T04:48:03;96625.28;;;4.52;100.00
20015;BME280;61787;42.022;23.078;2023-11-21T04:49:06;96630.19;;;4.58;100.00
20015;BME280;61787;42.022;23.078;2023-11-21T04:50:09;96631.47;;;4.61;100.00
20015;BME280;61787;42.022;23.078;2023-11-21T04:51:11;96628.88;;;4.69;100.00
20015;BME280;61787;42.022;23.078;2023-11-21T04:52:16;96635.06;;;4.79;100.00
20015;BME280;61787;42.022;23.078;2023-11-21T04:53:17;96638.88;;;4.86;100.00
20015;BME280;61787;42.022;23.078;2023-11-21T04:54:19;96636.28;;;4.95;100.00
20015;BME280;61787;42.022;23.078;2023-11-21T04:55:21;96639.63;;;5.00;100.00
20015;BME280;61787;42.022;23.078;2023-11-21T04:56:22;96645.59;;;5.06;100.00
20015;BME280;61787;42.022;23.078;2023-11-21T04:57:24;96637.50;;;5.11;100.00
20015;BME280;61787;42.022;23.078;2023-11-21T04:58:26;96641.91;;;5.15;100.00
20015;BME280;61787;42.022;23.078;2023-11-21T04:59:27;96635.22;;;5.18;100.00
20015;BME280;61787;42.022;23.078;2023-11-21T05:00:29;96642.59;;;5.21;100.00
20015;BME280;61787;42.022;23.078;2023-11-21T05:01:31;96641.50;;;5.22;100.00
20015;BME280;61787;42.022;23.078;2023-11-21T05:02:32;96636.19;;;5.22;100.00
20015;BME280;61787;42.022;23.078;2023-11-21T05:03:36;96634.00;;;5.24;100.00
20015;BME280;61787;42.022;23.078;2023-11-21T05:04:40;96636.66;;;5.24;100.00
20015;BME280;61787;42.022;23.078;2023-11-21T05:05:44;96633.81;;;5.21;100.00
20015;BME280;61787;42.022;23.078;2023-11-21T05:06:45;96636.91;;;5.14;100.00
20015;BME280;61787;42.022;23.078;2023-11-21T05:07:47;96640.16;;;5.11;100.00
20015;BME280;61787;42.022;23.078;2023-11-21T05:08:50;96636.44;;;5.12;100.00
20015;BME280;61787;42.022;23.078;2023-11-21T05:09:52;96632.38;;;5.14;100.00
20015;BME280;61787;42.022;23.078;2023-11-21T05:10:53;96639.13;;;5.21;100.00
20015;BME280;61787;42.022;23.078;2023-11-21T05:11:55;96637.16;;;5.26;100.00
20015;BME280;61787;42.022;23.078;2023-11-21T05:12:57;96641.84;;;5.29;100.00
20015;BME280;61787;42.022;23.078;2023-11-21T05:14:00;96641.25;;;5.32;100.00
20015;BME280;61787;42.022;23.078;2023-11-21T05:15:07;96639.19;;;5.29;100.00
20015;BME280;61787;42.022;23.078;2023-11-21T05:16:11;96644.72;;;5.33;100.00
20015;BME280;61787;42.022;23.078;2023-11-21T05:17:14;96643.59;;;5.34;100.00
20015;BME280;61787;42.022;23.078;2023-11-21T05:18:15;96645.00;;;5.31;100.00
20015;BME280;61787;42.022;23.078;2023-11-21T05:19:17;96641.84;;;5.29;100.00
20015;BME280;61787;42.022;23.078;2023-11-21T05:20:20;96644.81;;;5.28;100.00
20015;BME280;61787;42.022;23.078;2023-11-21T05:21:22;96649.09;;;5.15;100.00
20015;BME280;61787;42.022;23.078;2023-11-21T05:22:25;96644.78;;;4.83;100.00
20015;BME280;61787;42.022;23.078;2023-11-21T05:23:26;96645.25;;;4.49;100.00
20015;BME280;61787;42.022;23.078;2023-11-21T05:24:28;96640.38;;;4.29;100.00
20015;BME280;61787;42.022;23.078;2023-11-21T05:25:30;96642.13;;;4.06;100.00